createdAt,value
2022-12-03T00:01:14.408Z,13.90
2022-12-03T00:03:41.639Z,13.38
2022-12-03T00:06:08.839Z,13.63
2022-12-03T00:08:35.832Z,12.73
2022-12-03T00:11:02.960Z,11.30
2022-12-03T00:13:30.025Z,13.37
2022-12-03T00:15:57.083Z,13.65
2022-12-03T00:18:24.100Z,13.95
2022-12-03T00:20:51.017Z,13.00
2022-12-03T00:23:17.974Z,13.48
2022-12-03T00:25:47.321Z,12.53
2022-12-03T00:28:14.501Z,13.93
2022-12-03T00:30:41.750Z,13.43
2022-12-03T00:33:09.130Z,15.48
2022-12-03T00:35:36.432Z,13.07
2022-12-03T00:38:03.510Z,13.50
2022-12-03T00:40:30.471Z,14.18
2022-12-03T00:42:57.673Z,15.00
2022-12-03T00:45:24.731Z,14.18
2022-12-03T00:47:51.624Z,14.20
2022-12-03T00:50:18.732Z,14.73
2022-12-03T00:52:45.713Z,14.55
2022-12-03T00:55:12.738Z,14.52
2022-12-03T00:57:39.900Z,15.18
2022-12-03T01:00:07.634Z,14.10
2022-12-03T01:02:34.743Z,14.77
2022-12-03T01:05:01.934Z,14.82
2022-12-03T01:07:31.473Z,13.63
2022-12-03T01:09:58.603Z,15.13
2022-12-03T01:12:25.525Z,13.80
2022-12-03T01:14:52.956Z,13.48
2022-12-03T01:17:20.229Z,13.93
2022-12-03T01:19:48.636Z,11.70
2022-12-03T01:22:15.805Z,13.07
2022-12-03T01:24:42.816Z,13.63
2022-12-03T01:27:09.791Z,13.20
2022-12-03T01:29:36.732Z,12.52
2022-12-03T01:32:19.625Z,12.93
2022-12-03T01:34:54.898Z,13.07
2022-12-03T01:37:25.430Z,11.52
2022-12-03T01:39:54.797Z,15.02
2022-12-03T01:42:25.885Z,14.43
2022-12-03T01:44:56.570Z,13.33
2022-12-03T01:47:31.269Z,12.85
2022-12-03T01:50:27.417Z,13.02
2022-12-03T01:52:58.440Z,12.93
2022-12-03T01:55:28.311Z,12.63
2022-12-03T01:57:59.560Z,13.05
2022-12-03T02:00:28.018Z,12.82
2022-12-03T02:03:02.190Z,12.70
2022-12-03T02:05:32.035Z,12.27
2022-12-03T02:08:01.562Z,11.87
2022-12-03T02:10:32.801Z,10.30
2022-12-03T02:13:10.875Z,10.48
2022-12-03T02:15:40.540Z,13.02
2022-12-03T02:18:09.058Z,11.50
2022-12-03T02:20:52.024Z,12.48
2022-12-03T02:23:31.653Z,12.07
2022-12-03T02:25:58.647Z,11.07
2022-12-03T02:28:25.561Z,11.80
2022-12-03T02:30:52.489Z,12.80
2022-12-03T02:33:19.573Z,9.98
2022-12-03T02:35:46.466Z,13.80
2022-12-03T02:38:39.810Z,12.98
2022-12-03T02:41:10.434Z,10.48
2022-12-03T02:43:38.388Z,11.88
2022-12-03T02:46:07.980Z,11.20
2022-12-03T02:48:37.818Z,13.80
2022-12-03T02:51:08.782Z,11.30
2022-12-03T02:53:42.729Z,11.02
2022-12-03T02:56:12.254Z,12.30
2022-12-03T02:58:41.731Z,12.02
2022-12-03T03:01:09.719Z,10.00
2022-12-03T03:03:38.060Z,11.73
2022-12-03T03:06:07.195Z,13.13
2022-12-03T03:08:35.268Z,12.70
2022-12-03T03:11:02.867Z,13.47
2022-12-03T03:13:32.618Z,9.60
2022-12-03T03:16:00.015Z,9.52
2022-12-03T03:18:27.040Z,12.65
2022-12-03T03:20:54.120Z,12.10
2022-12-03T03:23:23.757Z,11.93
2022-12-03T03:26:01.939Z,11.68
2022-12-03T03:28:30.885Z,13.30
2022-12-03T03:31:00.797Z,10.32
2022-12-03T03:33:30.166Z,12.13
2022-12-03T03:36:00.614Z,10.02
2022-12-03T03:38:29.878Z,13.15
2022-12-03T03:40:59.705Z,10.75
2022-12-03T03:43:27.281Z,11.13
2022-12-03T03:45:54.813Z,12.18
2022-12-03T03:48:22.559Z,11.20
2022-12-03T03:50:51.010Z,8.18
2022-12-03T03:53:19.815Z,13.23
2022-12-03T03:55:47.137Z,11.75
2022-12-03T03:58:14.302Z,12.57
2022-12-03T04:00:46.815Z,12.80
2022-12-03T04:03:14.112Z,13.98
2022-12-03T04:05:41.131Z,12.17
2022-12-03T04:08:08.178Z,13.05
2022-12-03T04:10:53.650Z,11.55
2022-12-03T04:13:20.718Z,10.90
2022-12-03T04:15:48.030Z,9.10
2022-12-03T04:18:34.204Z,11.80
2022-12-03T04:21:30.218Z,12.20
2022-12-03T04:23:57.341Z,11.95
2022-12-03T04:26:43.137Z,12.00
2022-12-03T04:29:10.280Z,10.65
2022-12-03T04:31:56.625Z,12.23
2022-12-03T04:34:42.666Z,11.40
2022-12-03T04:37:09.882Z,11.25
2022-12-03T04:39:37.030Z,10.80
2022-12-03T04:42:05.905Z,13.07
2022-12-03T04:44:33.746Z,8.70
2022-12-03T04:47:07.215Z,11.75
2022-12-03T04:49:36.198Z,9.20
2022-12-03T04:52:03.206Z,11.13
2022-12-03T04:54:30.357Z,8.52
2022-12-03T04:56:57.407Z,7.17
2022-12-03T04:59:25.644Z,8.93
2022-12-03T05:01:52.736Z,10.63
2022-12-03T05:04:19.867Z,9.00
2022-12-03T05:06:46.877Z,8.35
2022-12-03T05:09:13.939Z,7.32
2022-12-03T05:11:41.770Z,8.27
2022-12-03T05:14:09.403Z,8.43
2022-12-03T05:16:36.880Z,9.32
2022-12-03T05:19:04.899Z,8.30
2022-12-03T05:21:31.961Z,8.18
2022-12-03T05:23:59.038Z,8.80
2022-12-03T05:26:26.137Z,10.20
2022-12-03T05:28:53.145Z,10.60
2022-12-03T05:31:20.317Z,7.10
2022-12-03T05:33:47.450Z,11.00
2022-12-03T05:36:14.542Z,8.38
2022-12-03T05:38:41.588Z,9.32
2022-12-03T05:41:28.594Z,9.00
2022-12-03T05:43:55.714Z,10.17
2022-12-03T05:46:23.166Z,10.70
2022-12-03T05:48:50.372Z,7.90
2022-12-03T05:51:17.276Z,8.93
2022-12-03T05:53:44.341Z,7.13
2022-12-03T05:56:11.338Z,7.50
2022-12-03T05:58:38.677Z,10.77
2022-12-03T06:01:05.705Z,11.65
2022-12-03T06:03:32.842Z,10.77
2022-12-03T06:06:00.003Z,8.55
2022-12-03T06:08:26.968Z,10.57
2022-12-03T06:10:54.068Z,9.10
2022-12-03T06:13:20.946Z,9.33
2022-12-03T06:15:47.984Z,9.43
2022-12-03T06:18:15.083Z,6.32
2022-12-03T06:20:42.023Z,10.07
2022-12-03T06:23:09.265Z,8.88
2022-12-03T06:25:36.227Z,10.63
2022-12-03T06:28:03.571Z,8.93
2022-12-03T06:30:30.608Z,10.07
2022-12-03T06:32:57.966Z,11.03
2022-12-03T06:35:24.961Z,9.68
2022-12-03T06:37:51.916Z,11.73
2022-12-03T06:40:19.382Z,12.10
2022-12-03T06:42:46.466Z,12.43
2022-12-03T06:45:13.439Z,12.17
2022-12-03T06:47:40.455Z,13.00
2022-12-03T06:50:08.768Z,13.48
2022-12-03T06:52:36.238Z,13.85
2022-12-03T06:55:03.742Z,13.00
2022-12-03T06:57:31.224Z,13.90
2022-12-03T06:59:58.306Z,13.20
2022-12-03T07:02:25.326Z,12.90
2022-12-03T07:04:52.509Z,13.25
2022-12-03T07:07:19.576Z,12.27
2022-12-03T07:09:46.603Z,13.83
2022-12-03T07:12:13.574Z,12.38
2022-12-03T07:14:40.599Z,11.57
2022-12-03T07:17:07.545Z,10.82
2022-12-03T07:19:34.544Z,12.00
2022-12-03T07:22:01.615Z,9.67
2022-12-03T07:24:29.002Z,12.05
2022-12-03T07:26:56.078Z,11.30
2022-12-03T07:29:23.127Z,11.80
2022-12-03T07:31:50.241Z,10.15
2022-12-03T07:34:17.331Z,12.17
2022-12-03T07:36:44.555Z,12.15
2022-12-03T07:39:11.500Z,12.82
2022-12-03T07:41:38.406Z,10.85
2022-12-03T07:44:10.857Z,13.30
2022-12-03T07:46:42.411Z,12.73
2022-12-03T07:49:09.880Z,11.68
2022-12-03T07:51:36.983Z,14.10
2022-12-03T07:54:04.486Z,12.23
2022-12-03T07:56:31.408Z,10.10
2022-12-03T07:59:01.767Z,11.87
2022-12-03T08:01:28.880Z,10.88
2022-12-03T08:03:56.118Z,10.52
2022-12-03T08:06:23.619Z,10.02
2022-12-03T08:08:50.717Z,8.75
2022-12-03T08:11:17.673Z,11.13
2022-12-03T08:13:44.691Z,11.38
2022-12-03T08:16:24.606Z,11.13
2022-12-03T08:18:58.420Z,10.73
2022-12-03T08:21:36.796Z,12.23
2022-12-03T08:24:30.456Z,17.20
2022-12-03T08:26:57.557Z,15.05
2022-12-03T08:29:24.768Z,14.65
2022-12-03T08:31:55.330Z,13.60
2022-12-03T08:34:26.600Z,12.93
2022-12-03T08:37:17.265Z,11.67
2022-12-03T08:40:04.610Z,10.95
2022-12-03T08:43:01.832Z,9.00
2022-12-03T08:45:45.102Z,9.95
2022-12-03T08:48:34.094Z,11.02
2022-12-03T08:51:25.618Z,10.87
2022-12-03T08:54:15.966Z,10.80
2022-12-03T08:56:48.544Z,13.63
2022-12-03T08:59:26.168Z,12.88
2022-12-03T09:02:01.268Z,13.60
2022-12-03T09:04:53.370Z,13.20
2022-12-03T09:07:22.541Z,13.27
2022-12-03T09:10:00.225Z,13.85
2022-12-03T09:12:32.869Z,12.25
2022-12-03T09:15:09.419Z,11.25
2022-12-03T09:17:43.816Z,12.27
2022-12-03T09:20:16.163Z,14.60
2022-12-03T09:22:43.430Z,9.43
2022-12-03T09:25:10.718Z,11.07
2022-12-03T09:27:37.802Z,15.40
2022-12-03T09:30:05.786Z,12.87
2022-12-03T09:32:32.845Z,15.40
2022-12-03T09:34:59.898Z,14.25
2022-12-03T09:37:27.070Z,14.20
2022-12-03T09:39:54.056Z,14.10
2022-12-03T09:42:21.039Z,14.60
2022-12-03T09:44:48.092Z,9.75
2022-12-03T09:47:15.602Z,12.45
2022-12-03T09:49:45.506Z,13.05
2022-12-03T09:52:26.753Z,13.05
2022-12-03T09:54:55.256Z,10.20
2022-12-03T09:57:22.482Z,10.35
2022-12-03T09:59:49.455Z,10.25
2022-12-03T10:02:25.466Z,11.02
2022-12-03T10:04:53.780Z,11.30
2022-12-03T10:07:25.361Z,11.67
2022-12-03T10:09:52.936Z,12.07
2022-12-03T10:12:24.828Z,10.68
2022-12-03T10:14:53.478Z,11.27
2022-12-03T10:17:20.746Z,11.50
2022-12-03T10:19:48.447Z,9.57
2022-12-03T10:22:15.501Z,9.20
2022-12-03T10:24:44.828Z,11.77
2022-12-03T10:27:38.560Z,11.23
2022-12-03T10:30:16.144Z,10.95
2022-12-03T10:32:47.027Z,12.57
2022-12-03T10:35:41.291Z,12.15
2022-12-03T10:38:18.741Z,10.80
2022-12-03T10:45:24.925Z,9.60
2022-12-03T10:48:25.529Z,9.73
2022-12-03T10:51:03.998Z,10.73
2022-12-03T10:53:33.201Z,9.27
2022-12-03T10:56:14.051Z,10.25
2022-12-03T10:58:43.155Z,10.40
2022-12-03T11:01:25.004Z,7.57
2022-12-03T11:03:53.255Z,9.40
2022-12-03T11:06:36.132Z,9.50
2022-12-03T11:09:08.783Z,11.13
2022-12-03T11:11:37.111Z,10.93
2022-12-03T11:14:05.708Z,10.80
2022-12-03T11:16:41.953Z,9.30
2022-12-03T11:19:20.829Z,9.63
2022-12-03T11:22:05.967Z,9.73
2022-12-03T11:24:35.026Z,7.57
2022-12-03T11:27:06.180Z,10.70
2022-12-03T11:29:51.739Z,9.23
2022-12-03T11:32:45.308Z,11.07
2022-12-03T11:42:38.444Z,8.30
2022-12-03T11:49:00.427Z,11.23
2022-12-03T11:51:26.107Z,12.00
2022-12-03T11:53:56.381Z,12.80
2022-12-03T11:56:29.830Z,11.97
2022-12-03T11:59:06.560Z,12.45
2022-12-03T12:01:43.966Z,12.10
2022-12-03T12:04:30.754Z,11.52
2022-12-03T12:07:02.037Z,10.55
2022-12-03T12:09:53.441Z,12.03
2022-12-03T12:13:01.726Z,11.90
2022-12-03T12:15:47.368Z,9.88
2022-12-03T12:18:55.191Z,10.55
2022-12-03T12:21:50.861Z,8.82
2022-12-03T12:24:53.774Z,10.77
2022-12-03T12:27:46.159Z,10.20
2022-12-03T12:34:20.783Z,8.55
2022-12-03T12:36:48.926Z,11.20
2022-12-03T12:39:19.642Z,10.37
2022-12-03T12:41:51.543Z,8.85
2022-12-03T12:44:23.355Z,10.88
2022-12-03T12:46:55.947Z,10.23
2022-12-03T12:49:29.623Z,8.45
2022-12-03T12:51:56.701Z,6.17
2022-12-03T12:54:29.850Z,9.98
2022-12-03T12:56:58.683Z,13.15
2022-12-03T13:03:59.562Z,12.95
2022-12-03T13:09:26.279Z,8.23
2022-12-03T13:11:59.417Z,9.70
2022-12-03T13:14:37.990Z,10.77
2022-12-03T13:17:29.276Z,9.77
2022-12-03T13:20:17.587Z,7.87
2022-12-03T13:22:45.806Z,10.23
2022-12-03T13:25:59.293Z,10.02
2022-12-03T13:28:24.875Z,8.00
2022-12-03T13:30:51.923Z,8.10
2022-12-03T13:33:33.363Z,8.37
2022-12-03T13:36:03.505Z,8.40
2022-12-03T13:38:30.675Z,7.72
2022-12-03T13:41:02.994Z,5.90
2022-12-03T13:43:32.625Z,7.43
2022-12-03T13:46:02.429Z,6.10
2022-12-03T13:49:02.034Z,7.65
2022-12-03T13:51:37.991Z,8.13
2022-12-03T13:54:48.810Z,8.23
2022-12-03T13:57:23.591Z,6.05
2022-12-03T14:00:06.262Z,6.20
2022-12-03T14:02:42.915Z,7.95
2022-12-03T14:05:46.432Z,7.22
2022-12-03T14:08:15.855Z,5.93
2022-12-03T14:10:46.005Z,5.97
2022-12-03T14:13:17.073Z,6.17
2022-12-03T14:15:57.304Z,7.35
2022-12-03T14:18:34.961Z,8.27
2022-12-03T14:23:53.730Z,6.43
2022-12-03T14:26:20.833Z,6.57
2022-12-03T14:28:47.841Z,7.75
2022-12-03T14:31:15.042Z,6.70
2022-12-03T14:33:42.141Z,4.72
2022-12-03T14:36:09.823Z,6.93
2022-12-03T14:38:38.793Z,7.70
2022-12-03T14:41:28.981Z,6.97
2022-12-03T14:43:56.028Z,7.40
2022-12-03T14:46:26.097Z,9.23
2022-12-03T14:48:54.858Z,7.68
2022-12-03T14:51:31.192Z,8.33
2022-12-03T14:54:01.461Z,8.20
2022-12-03T14:56:29.115Z,9.60
2022-12-03T14:58:56.150Z,8.55
2022-12-03T15:01:23.865Z,6.85
2022-12-03T15:03:51.497Z,7.03
2022-12-03T15:06:18.745Z,8.40
2022-12-03T15:08:48.933Z,7.68
2022-12-03T15:11:19.425Z,7.25
2022-12-03T15:14:36.170Z,8.45
2022-12-03T15:18:01.115Z,8.73
2022-12-03T15:20:29.358Z,6.75
2022-12-03T15:22:57.825Z,8.95
2022-12-03T15:25:28.866Z,8.52
2022-12-03T15:27:55.993Z,9.60
2022-12-03T15:30:23.582Z,7.67
2022-12-03T15:32:50.759Z,6.22
2022-12-03T15:35:20.637Z,8.82
2022-12-03T15:37:47.598Z,6.32
2022-12-03T15:40:15.988Z,9.23
2022-12-03T15:42:43.143Z,6.47
2022-12-03T15:45:14.922Z,8.82
2022-12-03T15:47:42.372Z,7.25
2022-12-03T15:50:09.934Z,9.35
2022-12-03T15:52:36.899Z,7.93
2022-12-03T15:55:04.127Z,9.00
2022-12-03T15:57:31.358Z,8.98
2022-12-03T15:59:58.382Z,7.93
2022-12-03T16:02:25.540Z,8.77
2022-12-03T16:04:55.454Z,9.65
2022-12-03T16:07:22.471Z,8.03
2022-12-03T16:09:49.545Z,8.48
2022-12-03T16:12:16.474Z,9.55
2022-12-03T16:14:43.516Z,7.82
2022-12-03T16:17:10.511Z,9.27
2022-12-03T16:19:37.482Z,8.60
2022-12-03T16:22:04.648Z,8.07
2022-12-03T16:24:31.848Z,6.72
2022-12-03T16:26:59.153Z,7.40
2022-12-03T16:29:31.798Z,6.15
2022-12-03T16:31:59.043Z,6.40
2022-12-03T16:34:26.030Z,5.60
2022-12-03T16:37:00.577Z,6.25
2022-12-03T16:39:27.795Z,6.43
2022-12-03T16:41:57.091Z,5.90
2022-12-03T16:44:35.854Z,6.67
2022-12-03T16:47:03.087Z,7.65
2022-12-03T16:49:33.085Z,6.68
2022-12-03T16:51:59.972Z,5.43
2022-12-03T16:54:26.997Z,6.00
2022-12-03T16:56:54.108Z,5.97
2022-12-03T16:59:21.258Z,4.85
2022-12-03T17:01:48.583Z,6.32
2022-12-03T17:04:16.091Z,5.22
2022-12-03T17:06:45.884Z,6.45
2022-12-03T17:09:12.885Z,6.60
2022-12-03T17:11:40.034Z,7.07
2022-12-03T17:14:10.320Z,5.57
2022-12-03T17:16:37.304Z,6.15
2022-12-03T17:19:04.378Z,7.45
2022-12-03T17:21:35.278Z,7.57
2022-12-03T17:24:05.764Z,7.78
2022-12-03T17:26:32.751Z,8.70
2022-12-03T17:29:02.758Z,7.90
2022-12-03T17:31:42.291Z,7.80
2022-12-03T17:34:12.360Z,8.50
2022-12-03T17:36:43.016Z,7.22
2022-12-03T17:39:10.913Z,8.77
2022-12-03T17:41:38.152Z,8.48
2022-12-03T17:44:09.891Z,8.00
2022-12-03T17:46:38.980Z,8.93
2022-12-03T17:49:06.346Z,7.82
2022-12-03T17:51:33.537Z,8.50
2022-12-03T17:54:03.770Z,6.05
2022-12-03T17:56:35.249Z,6.45
2022-12-03T17:59:15.623Z,7.30
2022-12-03T18:01:48.138Z,8.32
2022-12-03T18:04:17.845Z,6.82
2022-12-03T18:06:51.656Z,8.10
2022-12-03T18:09:29.163Z,8.90
2022-12-03T18:12:05.349Z,8.50
2022-12-03T18:17:22.067Z,8.43
2022-12-03T18:19:55.102Z,8.75
2022-12-03T18:22:22.356Z,5.68
2022-12-03T18:24:51.896Z,6.60
2022-12-03T18:27:23.913Z,7.15
2022-12-03T18:29:54.670Z,6.22
2022-12-03T18:32:29.302Z,5.43
2022-12-03T18:35:09.798Z,7.28
2022-12-03T18:37:38.139Z,7.57
2022-12-03T18:40:16.564Z,8.30
2022-12-03T18:42:46.677Z,7.60
2022-12-03T18:45:17.115Z,6.80
2022-12-03T18:47:47.311Z,8.00
2022-12-03T18:50:15.435Z,6.43
2022-12-03T18:52:45.726Z,7.90
2022-12-03T18:55:18.964Z,7.20
2022-12-03T18:57:48.657Z,8.02
2022-12-03T19:00:16.161Z,8.05
2022-12-03T19:03:02.432Z,8.13
2022-12-03T19:05:32.905Z,6.80
2022-12-03T19:08:00.494Z,6.57
2022-12-03T19:10:28.000Z,7.50
2022-12-03T19:12:55.099Z,7.45
2022-12-03T19:15:25.175Z,7.37
2022-12-03T19:17:52.269Z,7.65
2022-12-03T19:20:19.575Z,8.10
2022-12-03T19:22:46.667Z,6.18
2022-12-03T19:25:13.598Z,7.43
2022-12-03T19:27:40.636Z,8.23
2022-12-03T19:30:08.394Z,8.07
2022-12-03T19:32:35.813Z,8.20
2022-12-03T19:35:05.393Z,8.68
2022-12-03T19:37:36.145Z,8.13
2022-12-03T19:40:03.416Z,8.90
2022-12-03T19:42:31.351Z,8.57
2022-12-03T19:44:58.403Z,9.73
2022-12-03T19:47:28.333Z,6.28
2022-12-03T19:49:56.400Z,7.05
2022-12-03T19:52:24.935Z,8.30
2022-12-03T19:54:51.959Z,7.75
2022-12-03T19:57:23.536Z,7.20
2022-12-03T19:59:50.869Z,8.35
2022-12-03T20:02:17.989Z,8.52
2022-12-03T20:04:44.995Z,5.70
2022-12-03T20:07:14.737Z,7.18
2022-12-03T20:09:41.678Z,8.45
2022-12-03T20:12:28.559Z,6.93
2022-12-03T20:14:58.624Z,7.20
2022-12-03T20:17:25.496Z,7.90
2022-12-03T20:19:55.539Z,9.00
2022-12-03T20:22:22.807Z,8.18
2022-12-03T20:24:49.697Z,7.78
2022-12-03T20:27:22.480Z,7.13
2022-12-03T20:29:50.000Z,8.00
2022-12-03T20:32:17.213Z,6.70
2022-12-03T20:34:45.100Z,8.43
2022-12-03T20:37:15.134Z,6.82
2022-12-03T20:39:42.138Z,8.88
2022-12-03T20:42:10.573Z,8.13
2022-12-03T20:44:38.527Z,5.22
2022-12-03T20:47:05.662Z,8.25
2022-12-03T20:49:33.038Z,7.15
2022-12-03T20:52:02.852Z,7.97
2022-12-03T20:54:37.317Z,8.17
2022-12-03T20:57:06.580Z,7.90
2022-12-03T20:59:36.595Z,7.72
2022-12-03T21:02:08.883Z,8.55
2022-12-03T21:04:38.765Z,7.78
2022-12-03T21:07:05.719Z,7.97
2022-12-03T21:09:32.621Z,7.28
2022-12-03T21:11:59.535Z,7.68
2022-12-03T21:14:29.411Z,5.95
2022-12-03T21:17:08.553Z,7.95
2022-12-03T21:19:36.587Z,8.33
2022-12-03T21:22:07.217Z,7.65
2022-12-03T21:24:34.756Z,7.18
2022-12-03T21:27:01.883Z,8.93
2022-12-03T21:29:28.847Z,8.68
2022-12-03T21:31:55.802Z,8.10
2022-12-03T21:34:22.703Z,8.60
2022-12-03T21:36:49.827Z,7.97
2022-12-03T21:39:19.830Z,9.20
2022-12-03T21:42:35.094Z,8.77
2022-12-03T21:44:38.545Z,9.00
2022-12-03T21:47:11.763Z,8.40
2022-12-03T21:49:41.233Z,8.07
2022-12-03T21:52:08.208Z,8.15
2022-12-03T21:54:35.141Z,10.10
2022-12-03T21:57:02.107Z,8.23
2022-12-03T21:59:29.138Z,10.05
2022-12-03T22:01:56.195Z,9.02
2022-12-03T22:04:23.121Z,6.93
2022-12-03T22:06:50.038Z,7.40
2022-12-03T22:09:26.159Z,7.97
2022-12-03T22:12:00.837Z,5.85
2022-12-03T22:14:28.949Z,9.52
2022-12-03T22:16:59.538Z,7.60
2022-12-03T22:19:30.914Z,8.95
2022-12-03T22:22:00.796Z,8.53
2022-12-03T22:24:27.678Z,7.22
2022-12-03T22:26:56.869Z,8.15
2022-12-03T22:29:24.340Z,9.48
2022-12-03T22:31:51.658Z,7.13
2022-12-03T22:34:21.945Z,7.37
2022-12-03T22:36:52.726Z,8.70
2022-12-03T22:39:24.939Z,8.18
2022-12-03T22:41:52.103Z,7.00
2022-12-03T22:44:19.721Z,8.77
2022-12-03T22:46:46.786Z,9.77
2022-12-03T22:49:17.696Z,9.38
2022-12-03T22:51:49.431Z,8.13
2022-12-03T22:54:22.320Z,8.40
2022-12-03T22:56:51.385Z,8.30
2022-12-03T22:59:18.855Z,7.73
2022-12-03T23:01:49.095Z,8.77
2022-12-03T23:04:16.434Z,8.48
2022-12-03T23:06:44.002Z,9.57
2022-12-03T23:09:11.072Z,10.15
2022-12-03T23:11:40.692Z,8.03
2022-12-03T23:14:07.912Z,8.20
2022-12-03T23:16:34.914Z,8.35
2022-12-03T23:19:08.012Z,9.23
2022-12-03T23:21:40.020Z,7.95
2022-12-03T23:24:09.091Z,8.13
2022-12-03T23:26:38.108Z,7.95
2022-12-03T23:29:08.887Z,7.35
2022-12-03T23:31:39.693Z,7.60
2022-12-03T23:34:08.098Z,8.27
2022-12-03T23:36:35.626Z,8.43
2022-12-03T23:39:04.816Z,7.43
2022-12-03T23:41:31.889Z,8.80
2022-12-03T23:43:59.525Z,8.73
2022-12-03T23:46:27.860Z,8.02
2022-12-03T23:48:55.394Z,7.40
2022-12-03T23:56:10.554Z,8.38
2022-12-03T23:58:38.794Z,7.82
